Time;durP1;ratioP1;P1;durP2;ratioP2;P2;SDS_P1;SDS_P2;PMS_P1;PMS_P2;Temp;Humidity;BMP_temperature;BMP_pressure;BME280_temperature;BME280_humidity;BME280_pressure;Samples;Min_cycle;Max_cycle;Signal;HPM_P1;HPM_P2
2024/04/13 00:00:27;;;;;;;1.10;0.70;;;15.70;99.90;;;;;;5490051;26;20453;-38
2024/04/13 00:02:53;;;;;;;1.63;1.23;;;15.70;99.90;;;;;;5490088;26;19994;-37
2024/04/13 00:05:18;;;;;;;2.78;0.90;;;15.70;99.90;;;;;;5489922;26;20070;-39
2024/04/13 00:07:44;;;;;;;1.08;0.88;;;15.60;99.90;;;;;;5490414;26;19990;-39
2024/04/13 00:10:10;;;;;;;4.93;1.20;;;15.60;99.90;;;;;;5489972;26;20446;-40
2024/04/13 00:12:35;;;;;;;2.75;0.93;;;15.60;99.90;;;;;;5490053;26;19994;-38
2024/04/13 00:15:01;;;;;;;5.90;1.15;;;15.60;99.90;;;;;;5469024;26;20451;-60
2024/04/13 00:17:27;;;;;;;1.85;1.02;;;15.60;99.90;;;;;;5453677;26;20001;-41
2024/04/13 00:19:53;;;;;;;1.63;0.90;;;15.60;99.90;;;;;;5460866;26;20025;-40
2024/04/13 00:22:19;;;;;;;0.90;0.75;;;15.60;99.90;;;;;;5490411;26;20001;-39
2024/04/13 00:24:45;;;;;;;1.02;0.77;;;15.60;99.90;;;;;;5472027;26;19995;-38
2024/04/13 00:27:11;;;;;;;0.85;0.85;;;15.60;99.90;;;;;;5453559;26;19991;-38
2024/04/13 00:29:37;;;;;;;1.40;1.00;;;15.50;99.90;;;;;;5453478;26;20469;-38
2024/04/13 00:32:05;;;;;;;0.70;0.70;;;15.50;99.90;;;;;;5453583;26;20003;-38
2024/04/13 00:34:31;;;;;;;0.90;0.80;;;15.50;99.90;;;;;;5463941;26;20026;-38
2024/04/13 00:36:56;;;;;;;1.58;0.80;;;15.50;99.90;;;;;;5489211;26;20036;-38
2024/04/13 00:39:22;;;;;;;1.25;0.85;;;15.40;99.90;;;;;;5489401;26;19990;-38
2024/04/13 00:41:48;;;;;;;2.50;1.17;;;15.40;99.90;;;;;;5489630;26;20026;-39
2024/04/13 00:44:14;;;;;;;1.33;1.08;;;15.40;99.90;;;;;;5489343;26;19990;-39
2024/04/13 00:46:42;;;;;;;1.75;1.35;;;15.30;99.90;;;;;;5489775;26;19990;-39
2024/04/13 00:49:19;;;;;;;5.45;1.17;;;15.30;99.90;;;;;;5489270;26;20009;-40
2024/04/13 00:51:47;;;;;;;1.60;1.10;;;15.30;99.90;;;;;;5489425;26;20163;-37
2024/04/13 00:54:14;;;;;;;;;;;15.30;99.90;;;;;;5489774;26;20345;-38
2024/04/13 00:56:42;;;;;;;3.20;1.08;;;15.30;99.90;;;;;;5489189;26;19924;-39
2024/04/13 00:59:08;;;;;;;3.55;1.13;;;15.20;99.90;;;;;;5489514;26;20400;-39
2024/04/13 01:01:35;;;;;;;1.52;1.10;;;15.20;99.90;;;;;;5489152;26;20004;-39
2024/04/13 01:04:01;;;;;;;4.18;1.13;;;15.20;99.90;;;;;;5488466;26;19990;-38
2024/04/13 01:06:28;;;;;;;3.88;0.90;;;15.20;99.90;;;;;;5489069;26;20009;-40
2024/04/13 01:08:54;;;;;;;1.95;1.00;;;15.10;99.90;;;;;;5489043;26;20005;-38
2024/04/13 01:11:21;;;;;;;1.52;1.42;;;15.10;99.90;;;;;;5489136;26;19990;-38
2024/04/13 01:13:47;;;;;;;2.47;1.30;;;15.10;99.90;;;;;;5486685;26;19990;-39
2024/04/13 01:16:14;;;;;;;1.67;1.13;;;15.10;99.90;;;;;;5453025;26;20003;-38
2024/04/13 01:18:40;;;;;;;3.93;1.00;;;15.00;99.90;;;;;;5511848;26;20003;-39
2024/04/13 01:21:06;;;;;;;1.80;1.23;;;15.00;99.90;;;;;;5452333;26;20005;-38
2024/04/13 01:23:35;;;;;;;2.15;1.40;;;15.00;99.90;;;;;;5476302;26;19990;-45
2024/04/13 01:26:02;;;;;;;1.23;1.10;;;15.00;99.90;;;;;;5488665;26;19994;-40
2024/04/13 01:28:32;;;;;;;1.30;1.20;;;14.90;99.90;;;;;;5488456;26;19994;-39
2024/04/13 01:30:58;;;;;;;1.10;1.00;;;14.90;99.90;;;;;;5488769;26;20005;-37
2024/04/13 01:33:24;;;;;;;1.50;1.40;;;14.80;99.90;;;;;;5487137;26;20339;-45
2024/04/13 01:35:49;;;;;;;6.03;1.60;;;14.80;99.90;;;;;;5487057;26;20058;-38
2024/04/13 01:38:15;;;;;;;3.58;1.40;;;14.80;99.90;;;;;;5488704;26;19994;-37
2024/04/13 01:40:41;;;;;;;3.20;1.27;;;14.80;99.90;;;;;;5454983;26;20079;-37
2024/04/13 01:43:25;;;;;;;1.65;1.40;;;14.80;99.90;;;;;;5479249;26;20334;-38
2024/04/13 01:45:51;;;;;;;1.83;1.10;;;14.80;99.90;;;;;;5480304;26;20606;-39
2024/04/13 01:48:18;;;;;;;4.40;1.15;;;14.80;99.90;;;;;;5473516;26;20007;-39
2024/04/13 01:50:44;;;;;;;2.55;1.20;;;14.80;99.90;;;;;;5451910;26;20006;-39
2024/04/13 01:53:09;;;;;;;1.15;1.05;;;14.70;99.90;;;;;;5478936;26;19991;-46
2024/04/13 01:55:36;;;;;;;2.00;1.30;;;14.70;99.90;;;;;;5488552;26;20000;-38
2024/04/13 01:58:02;;;;;;;1.50;1.02;;;14.70;99.90;;;;;;5488157;26;20447;-39
2024/04/13 02:00:27;;;;;;;2.50;1.17;;;14.70;99.90;;;;;;5486280;26;19990;-37
2024/04/13 02:02:53;;;;;;;4.80;1.30;;;14.70;99.90;;;;;;5487863;26;20005;-40
2024/04/13 02:05:19;;;;;;;1.60;1.33;;;14.60;99.90;;;;;;5487844;26;20483;-53
2024/04/13 02:07:44;;;;;;;1.70;1.00;;;14.60;99.90;;;;;;5487730;26;20001;-52
2024/04/13 02:10:10;;;;;;;2.22;1.20;;;14.60;99.90;;;;;;5490608;26;20446;-51
2024/04/13 02:12:36;;;;;;;2.28;1.27;;;14.50;99.90;;;;;;5491783;26;19994;-51
2024/04/13 02:15:02;;;;;;;4.72;1.55;;;14.50;99.90;;;;;;5490382;26;20004;-50
2024/04/13 02:17:27;;;;;;;1.30;1.00;;;14.50;99.90;;;;;;5455741;26;19995;-55
2024/04/13 02:19:53;;;;;;;1.40;1.23;;;14.50;99.90;;;;;;5478234;26;19998;-53
2024/04/13 02:22:19;;;;;;;4.32;1.45;;;14.50;99.90;;;;;;5520425;26;20447;-53
2024/04/13 02:24:45;;;;;;;2.45;1.40;;;14.50;99.90;;;;;;5491311;26;19994;-50
2024/04/13 02:27:11;;;;;;;1.50;0.90;;;14.50;99.90;;;;;;5491334;26;19995;-54
2024/04/13 02:29:43;;;;;;;2.20;1.08;;;14.50;99.90;;;;;;5491332;26;20338;-53
2024/04/13 02:32:09;;;;;;;2.92;1.27;;;14.40;99.90;;;;;;5475129;26;20014;-38
2024/04/13 02:34:34;;;;;;;2.60;1.42;;;14.40;99.90;;;;;;5488167;26;19994;-47
2024/04/13 02:37:00;;;;;;;1.30;1.17;;;14.40;99.90;;;;;;5491300;26;19994;-39
2024/04/13 02:39:26;;;;;;;4.28;1.00;;;14.40;99.90;;;;;;5491147;26;20002;-38
2024/04/13 02:41:52;;;;;;;1.27;1.15;;;14.40;99.90;;;;;;5458565;26;20072;-37
2024/04/13 02:44:18;;;;;;;2.55;1.27;;;14.30;99.90;;;;;;5453123;26;20010;-38
2024/04/13 02:46:44;;;;;;;1.38;1.27;;;14.30;99.90;;;;;;5454655;26;20377;-61
2024/04/13 02:49:09;;;;;;;3.40;0.90;;;14.30;99.90;;;;;;5454672;26;20007;-38
2024/04/13 02:51:35;;;;;;;5.50;1.25;;;14.20;99.90;;;;;;5455427;26;20030;-38
2024/04/13 02:54:02;;;;;;;2.70;1.17;;;14.20;99.90;;;;;;5454671;26;19995;-40
2024/04/13 02:56:28;;;;;;;5.22;1.45;;;14.20;99.90;;;;;;5481930;26;20043;-37
2024/04/13 02:58:53;;;;;;;2.28;1.55;;;14.20;99.90;;;;;;5454612;26;19995;-38
2024/04/13 03:01:19;;;;;;;2.65;1.40;;;14.10;99.90;;;;;;5464679;26;20009;-49
2024/04/13 03:03:45;;;;;;;2.50;1.42;;;14.10;99.90;;;;;;5490897;26;19994;-49
2024/04/13 03:06:13;;;;;;;2.90;1.38;;;14.20;99.90;;;;;;5490767;26;20006;-53
2024/04/13 03:08:39;;;;;;;1.38;1.02;;;14.10;99.90;;;;;;5491151;26;19990;-52
2024/04/13 03:11:08;;;;;;;2.25;1.15;;;14.10;99.90;;;;;;5480162;26;20503;-53
2024/04/13 03:13:34;;;;;;;1.67;1.08;;;14.10;99.90;;;;;;5454370;26;20447;-54
2024/04/13 03:16:03;;;;;;;0.95;0.85;;;14.00;99.90;;;;;;5489846;26;20523;-52
2024/04/13 03:18:32;;;;;;;2.28;1.17;;;14.00;99.90;;;;;;5481850;26;20520;-63
2024/04/13 03:20:57;;;;;;;6.25;1.42;;;14.00;99.90;;;;;;5453166;26;20505;-38
2024/04/13 03:23:28;;;;;;;1.10;1.00;;;14.00;99.90;;;;;;5454553;26;19999;-38
2024/04/13 03:25:54;;;;;;;4.38;1.10;;;14.00;99.90;;;;;;5461548;26;20466;-39
2024/04/13 03:28:23;;;;;;;1.95;1.30;;;14.00;99.90;;;;;;5454200;26;19999;-38
2024/04/13 03:30:49;;;;;;;1.83;1.10;;;14.00;99.90;;;;;;5452216;26;20005;-38
2024/04/13 03:33:15;;;;;;;1.45;1.25;;;13.90;99.90;;;;;;5454755;26;19996;-39
2024/04/13 03:35:40;;;;;;;4.00;1.30;;;14.00;99.90;;;;;;5454117;26;20307;-39
2024/04/13 03:38:06;;;;;;;2.35;1.40;;;13.90;99.90;;;;;;5454809;26;19999;-38
2024/04/13 03:40:35;;;;;;;2.55;1.50;;;13.90;99.90;;;;;;5472583;26;19994;-42
2024/04/13 03:43:02;;;;;;;4.18;1.58;;;13.90;99.90;;;;;;5490235;26;20319;-38
2024/04/13 03:45:27;;;;;;;4.07;1.58;;;13.80;99.90;;;;;;5490344;26;20451;-39
2024/04/13 03:47:53;;;;;;;2.10;1.33;;;13.80;99.90;;;;;;5489717;26;20020;-39
2024/04/13 03:50:18;;;;;;;5.97;1.50;;;13.80;99.90;;;;;;5490266;26;20009;-39
2024/04/13 03:52:44;;;;;;;4.60;1.40;;;13.70;99.90;;;;;;5490122;26;20335;-39
2024/04/13 03:55:10;;;;;;;3.20;1.65;;;13.70;99.90;;;;;;5489155;26;20062;-38
2024/04/13 03:57:36;;;;;;;3.95;1.67;;;13.70;99.90;;;;;;5458763;26;20093;-40
2024/04/13 04:00:02;;;;;;;5.85;1.35;;;13.70;99.90;;;;;;5451751;26;20005;-38
2024/04/13 04:02:28;;;;;;;2.70;1.63;;;13.60;99.90;;;;;;5465779;26;20034;-39
2024/04/13 04:04:54;;;;;;;2.40;1.63;;;13.60;99.90;;;;;;5484584;26;19994;-38
2024/04/13 04:07:19;;;;;;;3.50;1.70;;;13.50;99.90;;;;;;5489991;26;19998;-41
2024/04/13 04:09:45;;;;;;;5.00;1.58;;;13.60;99.90;;;;;;5488730;26;20006;-40
2024/04/13 04:12:10;;;;;;;4.53;1.42;;;13.50;99.90;;;;;;5488116;26;19994;-38
2024/04/13 04:14:36;;;;;;;1.40;1.30;;;13.50;99.90;;;;;;5473341;26;20005;-39
2024/04/13 04:17:02;;;;;;;2.17;1.42;;;13.50;99.90;;;;;;5453482;26;20003;-40
2024/04/13 04:19:28;;;;;;;4.07;1.73;;;13.50;99.90;;;;;;5453980;26;20459;-38
2024/04/13 04:21:54;;;;;;;1.60;1.50;;;13.50;99.90;;;;;;5453537;26;20005;-38
2024/04/13 04:24:22;;;;;;;2.00;1.52;;;13.40;99.90;;;;;;5453538;26;20005;-39
2024/04/13 04:26:49;;;;;;;5.30;1.40;;;13.40;99.90;;;;;;5480024;26;20477;-41
2024/04/13 04:29:15;;;;;;;4.85;1.75;;;13.40;99.90;;;;;;5489446;26;19998;-38
2024/04/13 04:31:41;;;;;;;3.10;1.45;;;13.40;99.90;;;;;;5489366;26;20070;-39
2024/04/13 04:34:10;;;;;;;2.13;1.58;;;13.40;99.90;;;;;;5489656;26;20006;-39
2024/04/13 04:36:35;;;;;;;6.40;1.80;;;13.40;99.90;;;;;;5488022;26;20347;-54
2024/04/13 04:39:01;;;;;;;4.68;2.05;;;13.40;99.90;;;;;;5487551;26;20062;-39
2024/04/13 04:41:27;;;;;;;6.10;1.90;;;13.30;99.90;;;;;;5453136;26;20010;-40
2024/04/13 04:43:53;;;;;;;5.03;1.80;;;13.30;99.90;;;;;;5453204;26;20485;-40
2024/04/13 04:46:20;;;;;;;2.78;1.90;;;13.30;99.90;;;;;;5453109;26;20458;-70
2024/04/13 04:48:49;;;;;;;5.25;2.00;;;13.30;99.90;;;;;;5452963;26;20440;-40
2024/04/13 04:51:15;;;;;;;5.65;2.00;;;13.30;99.90;;;;;;5485997;26;20009;-39
2024/04/13 04:53:41;;;;;;;4.68;1.88;;;13.30;99.90;;;;;;5489342;26;19995;-39
2024/04/13 04:56:07;;;;;;;3.70;2.03;;;13.30;99.90;;;;;;5486698;26;20005;-39
2024/04/13 04:58:33;;;;;;;4.93;1.77;;;13.30;99.90;;;;;;5489599;26;20022;-39
2024/04/13 05:00:58;;;;;;;3.53;2.10;;;13.30;99.90;;;;;;5488954;26;20320;-39
2024/04/13 05:03:24;;;;;;;2.92;1.83;;;13.20;99.90;;;;;;5489170;26;20354;-47
2024/04/13 05:05:51;;;;;;;7.55;1.95;;;13.30;99.90;;;;;;5489071;26;19998;-39
2024/04/13 05:08:16;;;;;;;4.15;2.15;;;13.30;99.90;;;;;;5489129;26;20336;-38
2024/04/13 05:10:42;;;;;;;2.75;1.92;;;13.30;99.90;;;;;;5486314;26;20066;-39
2024/04/13 05:13:08;;;;;;;4.72;2.10;;;13.30;99.90;;;;;;5489041;26;20009;-40
2024/04/13 05:15:34;;;;;;;5.60;2.28;;;13.30;99.90;;;;;;5488833;26;20025;-39
2024/04/13 05:18:02;;;;;;;3.42;1.73;;;13.40;99.90;;;;;;5489196;26;20008;-39
2024/04/13 05:20:28;;;;;;;3.97;2.00;;;13.40;99.90;;;;;;5462635;26;19998;-39
2024/04/13 05:22:54;;;;;;;2.38;1.88;;;13.40;99.90;;;;;;5450687;26;20027;-38
2024/04/13 05:25:20;;;;;;;2.65;1.70;;;13.40;99.90;;;;;;5468716;26;20330;-39
2024/04/13 05:27:46;;;;;;;3.53;2.10;;;13.50;99.90;;;;;;5488683;26;20002;-45
2024/04/13 05:30:11;;;;;;;7.25;2.63;;;13.50;99.90;;;;;;5489023;26;20087;-43
2024/04/13 05:32:37;;;;;;;5.20;2.00;;;13.60;99.90;;;;;;5487515;26;20088;-58
2024/04/13 05:35:03;;;;;;;2.78;1.88;;;13.60;99.90;;;;;;5487167;26;20005;-39
2024/04/13 05:37:29;;;;;;;3.88;2.17;;;13.70;99.90;;;;;;5475503;26;19999;-39
2024/04/13 05:39:54;;;;;;;5.47;1.50;;;13.70;99.90;;;;;;5458229;26;20002;-39
2024/04/13 05:42:20;;;;;;;6.25;1.98;;;13.80;99.90;;;;;;5488462;26;19995;-38
2024/04/13 05:44:46;;;;;;;3.70;1.55;;;13.80;99.90;;;;;;5487297;26;20458;-38
2024/04/13 05:47:11;;;;;;;1.95;1.60;;;13.90;99.90;;;;;;5487820;26;20010;-38
2024/04/13 05:49:37;;;;;;;3.70;1.75;;;13.90;99.90;;;;;;5488759;26;20070;-39
2024/04/13 05:52:03;;;;;;;6.05;1.95;;;14.00;99.90;;;;;;5486430;26;19994;-40
2024/04/13 05:54:29;;;;;;;4.05;1.55;;;14.00;99.90;;;;;;5488409;26;20051;-39
2024/04/13 05:56:55;;;;;;;2.30;1.60;;;14.10;99.90;;;;;;5485438;26;19998;-40
2024/04/13 05:59:21;;;;;;;2.67;1.75;;;14.20;99.90;;;;;;5488086;26;20006;-39
2024/04/13 06:01:47;;;;;;;2.42;1.45;;;14.20;99.90;;;;;;5482019;26;20055;-38
2024/04/13 06:04:12;;;;;;;1.92;1.73;;;14.30;99.90;;;;;;5451949;26;20071;-39
2024/04/13 06:06:38;;;;;;;2.67;1.75;;;14.40;99.90;;;;;;5451759;26;19999;-39
2024/04/13 06:09:05;;;;;;;3.78;1.42;;;14.40;99.90;;;;;;5451429;26;20536;-52
2024/04/13 06:14:15;;;;;;;2.55;1.33;;;14.60;99.90;;;;;;5476991;26;20013;-39
2024/04/13 06:16:41;;;;;;;2.42;1.55;;;14.80;99.90;;;;;;5449627;26;20015;-39
2024/04/13 06:19:07;;;;;;;3.38;1.67;;;14.90;99.90;;;;;;5451335;26;20003;-40
2024/04/13 06:21:33;;;;;;;2.47;1.70;;;14.90;99.90;;;;;;5451932;26;20064;-39
2024/04/13 06:23:58;;;;;;;1.90;1.67;;;15.00;99.90;;;;;;5451346;26;20014;-47
2024/04/13 06:26:25;;;;;;;3.35;1.92;;;15.10;99.90;;;;;;5468386;26;20009;-38
2024/04/13 06:28:52;;;;;;;4.03;2.22;;;15.10;99.90;;;;;;5487465;26;20324;-42
2024/04/13 06:31:19;;;;;;;3.33;1.60;;;15.20;99.90;;;;;;5482274;26;20466;-50
2024/04/13 06:33:44;;;;;;;2.97;1.70;;;15.30;99.90;;;;;;5487375;26;20225;-41
2024/04/13 06:36:10;;;;;;;2.58;1.98;;;15.40;99.90;;;;;;5487587;26;20009;-41
2024/04/13 06:38:36;;;;;;;8.00;1.40;;;15.40;99.90;;;;;;5487551;26;19998;-39
2024/04/13 06:41:01;;;;;;;3.30;1.48;;;15.50;99.90;;;;;;5484500;26;20067;-39
2024/04/13 06:43:27;;;;;;;2.60;1.60;;;15.60;99.90;;;;;;5487654;26;19995;-40
2024/04/13 06:45:53;;;;;;;3.55;2.85;;;15.70;99.90;;;;;;5487298;26;20026;-38
2024/04/13 06:48:18;;;;;;;2.33;1.77;;;15.70;99.90;;;;;;5487385;26;20075;-38
2024/04/13 06:50:44;;;;;;;3.85;1.80;;;15.80;99.90;;;;;;5474976;26;19995;-40
2024/04/13 06:53:10;;;;;;;2.70;1.63;;;15.90;99.90;;;;;;5450885;26;20006;-39
2024/04/13 06:55:36;;;;;;;5.35;1.88;;;15.90;99.90;;;;;;5459048;26;20006;-41
2024/04/13 06:58:01;;;;;;;6.35;1.88;;;16.00;99.90;;;;;;5490980;26;20060;-40
2024/04/13 07:00:27;;;;;;;4.80;1.77;;;16.00;99.90;;;;;;5481222;26;20003;-39
2024/04/13 07:02:52;;;;;;;1.85;1.50;;;16.10;99.90;;;;;;5454524;26;19999;-39
2024/04/13 07:05:18;;;;;;;2.95;1.80;;;16.20;99.90;;;;;;5454388;26;20035;-42
2024/04/13 07:07:44;;;;;;;7.15;2.55;;;16.30;99.90;;;;;;5454362;26;19995;-38
2024/04/13 07:10:09;;;;;;;3.92;2.08;;;16.30;99.90;;;;;;5459628;26;20372;-38
2024/04/13 07:12:35;;;;;;;3.20;1.55;;;16.40;99.90;;;;;;5466995;26;19995;-39
2024/04/13 07:15:01;;;;;;;1.73;1.40;;;16.50;99.90;;;;;;5454271;26;19999;-40
2024/04/13 07:17:27;;;;;;;6.00;1.55;;;16.60;99.90;;;;;;5454367;26;20003;-48
2024/04/13 07:19:53;;;;;;;1.88;1.60;;;16.60;99.90;;;;;;5456104;26;20002;-44
2024/04/13 07:22:20;;;;;;;2.13;1.30;;;16.70;99.90;;;;;;5490485;26;20009;-39
2024/04/13 07:24:45;;;;;;;2.65;2.03;;;16.80;99.90;;;;;;5488990;26;20006;-37
2024/04/13 07:27:11;;;;;;;5.20;1.42;;;16.90;99.90;;;;;;5457212;26;20313;-40
2024/04/13 07:29:36;;;;;;;3.92;2.00;;;16.90;99.90;;;;;;5487648;26;19998;-39
2024/04/13 07:32:02;;;;;;;1.63;1.52;;;16.90;99.90;;;;;;5487648;26;20013;-38
2024/04/13 07:34:28;;;;;;;3.03;1.85;;;16.90;99.90;;;;;;5488676;26;19998;-40
2024/04/13 07:36:53;;;;;;;2.65;1.70;;;17.00;99.90;;;;;;5488670;26;19994;-71
2024/04/13 07:39:19;;;;;;;2.53;2.33;;;17.10;99.90;;;;;;5460001;26;20071;-53
2024/04/13 07:41:44;;;;;;;4.60;1.70;;;17.20;99.90;;;;;;5473305;26;20001;-52
2024/04/13 07:44:10;;;;;;;6.30;1.85;;;17.30;99.90;;;;;;5490240;26;20006;-53
2024/04/13 07:46:37;;;;;;;2.85;1.80;;;17.30;99.90;;;;;;5490170;26;19998;-50
2024/04/13 07:49:02;;;;;;;8.63;1.80;;;17.40;99.90;;;;;;5462916;26;19995;-52
2024/04/13 07:51:28;;;;;;;2.30;1.55;;;17.40;99.90;;;;;;5470862;26;20470;-52
2024/04/13 07:53:54;;;;;;;3.35;1.73;;;17.50;99.90;;;;;;5490474;26;20030;-51
2024/04/13 07:56:19;;;;;;;4.65;2.20;;;17.50;99.90;;;;;;5485752;26;19995;-53
2024/04/13 07:58:45;;;;;;;4.40;1.90;;;17.50;99.90;;;;;;5489944;26;19995;-50
2024/04/13 08:01:11;;;;;;;2.88;1.95;;;17.60;99.90;;;;;;5487367;26;20070;-42
2024/04/13 08:03:36;;;;;;;2.78;1.90;;;17.70;99.90;;;;;;5489857;26;20534;-40
2024/04/13 08:06:02;;;;;;;2.85;1.92;;;17.70;99.90;;;;;;5478982;26;19999;-40
2024/04/13 08:08:28;;;;;;;7.53;2.25;;;17.80;99.90;;;;;;5461014;26;20002;-39
2024/04/13 08:10:54;;;;;;;3.05;2.28;;;17.90;99.90;;;;;;5485257;26;20018;-38
2024/04/13 08:13:19;;;;;;;3.10;1.90;;;17.90;99.90;;;;;;5489888;26;19994;-41
2024/04/13 08:15:45;;;;;;;3.35;1.80;;;18.00;99.90;;;;;;5478007;26;20117;-40
2024/04/13 08:18:11;;;;;;;5.13;2.72;;;18.20;99.90;;;;;;5489131;26;20010;-39
2024/04/13 08:20:36;;;;;;;2.55;2.10;;;18.40;99.90;;;;;;5489761;26;20280;-37
2024/04/13 08:23:03;;;;;;;3.38;2.30;;;18.50;99.90;;;;;;5489705;26;19998;-39
2024/04/13 08:25:29;;;;;;;3.88;2.25;;;18.60;99.90;;;;;;5475916;26;20009;-42
2024/04/13 08:27:55;;;;;;;2.10;1.65;;;18.60;99.90;;;;;;5486866;26;20013;-38
2024/04/13 08:30:22;;;;;;;2.83;1.83;;;18.70;99.90;;;;;;5487394;26;19994;-39
2024/04/13 08:32:48;;;;;;;2.83;1.98;;;18.90;99.90;;;;;;5489458;26;20450;-42
2024/04/13 08:35:15;;;;;;;7.40;2.08;;;19.00;99.90;;;;;;5488546;26;20002;-42
2024/04/13 08:37:41;;;;;;;2.20;1.77;;;19.10;99.90;;;;;;5489598;26;20343;-41
2024/04/13 08:40:10;;;;;;;2.40;1.80;;;19.10;99.90;;;;;;5489365;26;19994;-40
2024/04/13 08:42:43;;;;;;;2.35;1.85;;;19.20;99.90;;;;;;5468120;26;20459;-40
2024/04/13 08:45:10;;;;;;;4.82;2.22;;;19.30;99.90;;;;;;5470280;26;19990;-41
2024/04/13 08:47:38;;;;;;;6.93;2.03;;;19.20;99.90;;;;;;5463809;26;20447;-39
2024/04/13 08:50:06;;;;;;;3.42;1.73;;;19.20;99.90;;;;;;5463824;26;19990;-43
2024/04/13 08:52:32;;;;;;;6.00;2.63;;;19.30;99.90;;;;;;5487063;26;20030;-41
2024/04/13 08:54:58;;;;;;;3.38;2.03;;;19.40;99.90;;;;;;5488529;26;20330;-40
2024/04/13 08:57:29;;;;;;;7.57;2.10;;;19.40;99.90;;;;;;5489387;26;20435;-38
2024/04/13 09:00:00;;;;;;;3.45;2.25;;;19.50;99.90;;;;;;5489255;26;20671;-38
2024/04/13 09:02:31;;;;;;;5.82;2.15;;;19.70;99.90;;;;;;5488831;26;20450;-38
2024/04/13 09:04:58;;;;;;;4.63;2.10;;;19.80;99.90;;;;;;5488880;26;20008;-40
2024/04/13 09:07:24;;;;;;;4.38;1.90;;;19.90;99.90;;;;;;5487866;26;20379;-42
2024/04/13 09:09:52;;;;;;;3.65;2.15;;;20.00;99.90;;;;;;5488779;26;20474;-40
2024/04/13 09:12:17;;;;;;;3.72;1.80;;;20.10;99.90;;;;;;5489122;26;20002;-43
2024/04/13 09:14:43;;;;;;;2.20;2.00;;;20.10;99.90;;;;;;5470265;26;20484;-43
2024/04/13 09:17:09;;;;;;;8.48;2.00;;;20.20;99.90;;;;;;5452536;26;20063;-46
2024/04/13 09:19:35;;;;;;;4.00;2.40;;;20.30;99.90;;;;;;5484992;26;20323;-43
2024/04/13 09:22:02;;;;;;;7.82;2.45;;;20.30;99.90;;;;;;5488588;26;19994;-42
2024/04/13 09:24:37;;;;;;;3.90;2.65;;;20.40;99.90;;;;;;5486895;26;20439;-42
2024/04/13 09:27:06;;;;;;;3.45;2.38;;;20.50;99.90;;;;;;5488896;26;20392;-41
2024/04/13 09:29:31;;;;;;;7.10;2.90;;;20.40;99.90;;;;;;5489074;26;20002;-47
2024/04/13 09:31:58;;;;;;;5.15;2.28;;;20.40;99.90;;;;;;5488667;26;20063;-40
2024/04/13 09:34:24;;;;;;;10.00;3.08;;;20.50;99.90;;;;;;5488727;26;20446;-40
2024/04/13 09:36:50;;;;;;;5.10;2.40;;;20.60;99.90;;;;;;5488065;26;20006;-42
2024/04/13 09:39:23;;;;;;;7.53;3.03;;;20.70;99.90;;;;;;5485897;26;19998;-44
2024/04/13 09:41:49;;;;;;;4.00;2.63;;;20.70;99.90;;;;;;5486686;26;19994;-43
2024/04/13 09:44:27;;;;;;;7.30;2.65;;;20.90;99.90;;;;;;5488388;26;19998;-44
2024/04/13 09:46:56;;;;;;;4.35;2.78;;;21.00;99.90;;;;;;5488462;26;20005;-41
2024/04/13 09:49:21;;;;;;;5.13;2.25;;;21.10;99.90;;;;;;5488265;26;20039;-42
2024/04/13 09:51:50;;;;;;;3.30;2.40;;;21.20;99.90;;;;;;5488051;26;20005;-39
2024/04/13 09:54:16;;;;;;;4.70;2.78;;;21.20;99.90;;;;;;5487753;26;20037;-37
2024/04/13 09:56:46;;;;;;;2.97;2.63;;;21.20;99.90;;;;;;5487550;26;20463;-40
2024/04/13 09:59:13;;;;;;;4.97;2.67;;;21.30;99.90;;;;;;5487397;26;20472;-41
2024/04/13 10:01:39;;;;;;;4.57;2.47;;;21.50;99.90;;;;;;5488206;26;20028;-40
2024/04/13 10:04:05;;;;;;;8.75;3.30;;;21.70;99.90;;;;;;5487901;26;19999;-39
2024/04/13 10:06:33;;;;;;;4.25;3.25;;;21.90;99.90;;;;;;5488286;26;20010;-45
2024/04/13 10:09:02;;;;;;;11.88;4.10;;;22.00;99.90;;;;;;5488241;26;20062;-41
2024/04/13 10:11:30;;;;;;;4.07;2.22;;;22.10;99.90;;;;;;5465031;26;20076;-41
2024/04/13 10:13:57;;;;;;;8.38;3.75;;;22.00;99.90;;;;;;5478379;26;19998;-40
2024/04/13 10:16:24;;;;;;;13.63;4.73;;;22.10;99.90;;;;;;5487664;26;20453;-43
2024/04/13 10:18:50;;;;;;;9.10;4.10;;;22.10;99.90;;;;;;5487676;26;20707;-40
2024/04/13 10:21:21;;;;;;;6.00;3.60;;;22.20;99.90;;;;;;5487789;26;20009;-40
2024/04/13 10:23:47;;;;;;;5.18;3.90;;;22.20;99.90;;;;;;5487601;26;19998;-39
2024/04/13 10:26:13;;;;;;;10.02;4.25;;;22.30;99.90;;;;;;5487056;26;20369;-64
2024/04/13 10:28:40;;;;;;;10.20;4.13;;;22.40;99.90;;;;;;5487243;26;19994;-48
2024/04/13 10:31:19;;;;;;;7.30;4.18;;;22.30;99.90;;;;;;5489931;26;20486;-39
2024/04/13 10:33:56;;;;;;;7.40;4.30;;;22.30;99.90;;;;;;5491251;26;20038;-40
2024/04/13 10:36:32;;;;;;;6.78;3.80;;;22.30;99.90;;;;;;5491296;26;20008;-40
2024/04/13 10:39:00;;;;;;;8.07;4.07;;;22.40;99.90;;;;;;5490879;26;19998;-53
2024/04/13 10:41:33;;;;;;;9.00;4.63;;;22.60;99.90;;;;;;5491087;26;19998;-41
2024/04/13 10:44:03;;;;;;;10.23;5.05;;;22.70;99.90;;;;;;5491369;26;20007;-53
2024/04/13 10:46:29;;;;;;;12.27;4.88;;;22.60;99.90;;;;;;5489696;26;19994;-38
2024/04/13 10:48:55;;;;;;;10.13;5.63;;;22.50;99.90;;;;;;5490943;26;19990;-41
2024/04/13 10:51:21;;;;;;;11.20;4.82;;;22.60;99.90;;;;;;5490723;26;20001;-44
2024/04/13 10:53:48;;;;;;;10.85;5.32;;;22.60;99.90;;;;;;5490836;26;19994;-41
2024/04/13 10:56:13;;;;;;;7.80;4.38;;;22.70;99.90;;;;;;5488962;26;19990;-40
2024/04/13 10:58:39;;;;;;;13.32;4.20;;;22.80;99.90;;;;;;5488757;26;20006;-71
2024/04/13 11:01:05;;;;;;;7.57;4.65;;;23.00;99.90;;;;;;5488355;26;20001;-40
2024/04/13 11:03:32;;;;;;;5.97;4.20;;;23.10;99.90;;;;;;5490677;26;20009;-43
2024/04/13 11:05:58;;;;;;;9.75;4.30;;;23.30;99.90;;;;;;5490274;26;19990;-42
2024/04/13 11:08:25;;;;;;;7.68;4.85;;;23.40;99.90;;;;;;5490637;26;20002;-46
2024/04/13 11:10:54;;;;;;;9.83;5.00;;;23.40;99.90;;;;;;5490695;26;20422;-40
2024/04/13 11:13:21;;;;;;;11.27;4.65;;;23.50;99.90;;;;;;5490448;26;20512;-41
2024/04/13 11:15:47;;;;;;;11.10;5.22;;;23.50;99.90;;;;;;5490381;26;20335;-44
2024/04/13 11:18:13;;;;;;;7.03;4.13;;;23.50;99.90;;;;;;5488733;26;20320;-43
2024/04/13 11:20:40;;;;;;;10.80;4.82;;;23.50;99.90;;;;;;5490279;26;20048;-41
2024/04/13 11:23:07;;;;;;;10.98;5.20;;;23.50;99.90;;;;;;5487776;26;20330;-42
2024/04/13 11:25:34;;;;;;;7.33;4.70;;;23.30;99.90;;;;;;5490654;26;20357;-43
2024/04/13 11:28:00;;;;;;;;;;;23.30;99.90;;;;;;5491040;26;20002;-41
2024/04/13 11:30:26;;;;;;;7.03;4.18;;;23.30;99.90;;;;;;5490747;26;19928;-42
2024/04/13 11:32:52;;;;;;;8.65;4.50;;;23.40;99.90;;;;;;5491154;26;19991;-42
2024/04/13 11:35:18;;;;;;;6.03;4.20;;;23.50;99.90;;;;;;5490778;26;19994;-42
2024/04/13 11:37:59;;;;;;;4.35;3.67;;;23.60;99.90;;;;;;5489311;26;20005;-69
2024/04/13 11:40:31;;;;;;;5.85;4.05;;;23.80;99.90;;;;;;5490095;26;20014;-38
2024/04/13 11:43:00;;;;;;;7.68;4.50;;;23.80;99.90;;;;;;5488612;26;20004;-41
2024/04/13 11:45:27;;;;;;;7.72;3.47;;;23.70;99.90;;;;;;5490201;26;20450;-41
2024/04/13 11:47:53;;;;;;;6.85;4.60;;;23.80;99.90;;;;;;5489979;26;20443;-68
2024/04/13 11:50:20;;;;;;;7.88;4.60;;;23.80;99.90;;;;;;5490212;26;20304;-38
2024/04/13 11:52:46;;;;;;;4.68;4.13;;;23.90;99.90;;;;;;5490206;26;20422;-53
2024/04/13 11:55:11;;;;;;;8.13;4.72;;;23.80;99.90;;;;;;5489928;26;20403;-49
2024/04/13 11:57:46;;;;;;;9.57;4.72;;;24.00;99.90;;;;;;5490094;26;20470;-51
2024/04/13 12:00:14;;;;;;;5.72;4.00;;;24.20;99.90;;;;;;5489611;26;19994;-54
2024/04/13 12:02:39;;;;;;;6.25;4.07;;;24.20;99.90;;;;;;5489980;26;20470;-40
2024/04/13 12:05:05;;;;;;;8.85;4.32;;;24.40;99.90;;;;;;5489938;26;20009;-40
2024/04/13 12:07:31;;;;;;;6.82;3.38;;;24.30;99.90;;;;;;5489431;26;19998;-43
2024/04/13 12:09:57;;;;;;;4.93;3.28;;;24.20;99.90;;;;;;5489781;26;20481;-42
2024/04/13 12:12:23;;;;;;;3.77;2.40;;;24.40;99.90;;;;;;5453779;26;20500;-39
2024/04/13 12:14:51;;;;;;;8.18;1.90;;;24.60;99.90;;;;;;5453470;26;20003;-44
2024/04/13 12:17:17;;;;;;;4.93;2.03;;;24.50;99.90;;;;;;5453173;26;20019;-39
2024/04/13 12:19:43;;;;;;;4.93;1.70;;;24.50;99.90;;;;;;5453326;26;20006;-40
2024/04/13 12:22:09;;;;;;;2.80;1.75;;;24.50;99.90;;;;;;5452935;26;19994;-43
2024/04/13 12:24:35;;;;;;;2.63;2.05;;;24.60;99.90;;;;;;5453357;26;20519;-39
2024/04/13 12:27:03;;;;;;;4.50;1.92;;;24.60;99.90;;;;;;5453103;26;19999;-39
2024/04/13 12:29:29;;;;;;;4.85;2.33;;;24.40;99.90;;;;;;5452850;26;19994;-39
2024/04/13 12:31:54;;;;;;;2.33;2.13;;;24.50;99.90;;;;;;5453265;26;20017;-44
2024/04/13 12:34:20;;;;;;;3.05;1.77;;;24.80;99.90;;;;;;5451659;26;20343;-46
2024/04/13 12:36:46;;;;;;;3.17;2.28;;;24.90;99.90;;;;;;5453328;26;19995;-37
2024/04/13 12:39:15;;;;;;;1.98;1.88;;;24.90;99.90;;;;;;5453015;26;20043;-43
2024/04/13 12:41:40;;;;;;;3.75;2.20;;;24.90;99.90;;;;;;5451312;26;20013;-53
2024/04/13 12:44:12;;;;;;;2.28;1.90;;;24.90;99.90;;;;;;5453080;26;19998;-74
2024/04/13 12:46:38;;;;;;;3.67;1.80;;;24.60;99.90;;;;;;5453035;26;20439;-70